sensor_id;sensor_type;location;lat;lon;timestamp;P1;durP1;ratioP1;P2;durP2;ratioP2
81952;SDS011;71454;55.476;14.282;2023-11-21T00:00:55;8.00;;;2.47;;
81952;SDS011;71454;55.476;14.282;2023-11-21T00:03:21;5.38;;;1.90;;
81952;SDS011;71454;55.476;14.282;2023-11-21T00:05:48;6.25;;;2.53;;
81952;SDS011;71454;55.476;14.282;2023-11-21T00:08:14;7.30;;;2.70;;
81952;SDS011;71454;55.476;14.282;2023-11-21T00:10:39;6.65;;;2.63;;
81952;SDS011;71454;55.476;14.282;2023-11-21T00:13:04;7.20;;;2.90;;
81952;SDS011;71454;55.476;14.282;2023-11-21T00:15:30;7.70;;;2.95;;
81952;SDS011;71454;55.476;14.282;2023-11-21T00:17:55;9.82;;;3.17;;
81952;SDS011;71454;55.476;14.282;2023-11-21T00:20:20;5.75;;;2.00;;
81952;SDS011;71454;55.476;14.282;2023-11-21T00:22:47;5.72;;;1.80;;
81952;SDS011;71454;55.476;14.282;2023-11-21T00:25:12;5.85;;;1.67;;
81952;SDS011;71454;55.476;14.282;2023-11-21T00:27:40;6.05;;;2.22;;
81952;SDS011;71454;55.476;14.282;2023-11-21T00:30:06;6.05;;;2.03;;
81952;SDS011;71454;55.476;14.282;2023-11-21T00:32:33;7.50;;;2.75;;
81952;SDS011;71454;55.476;14.282;2023-11-21T00:35:00;12.55;;;3.83;;
81952;SDS011;71454;55.476;14.282;2023-11-21T00:37:26;7.18;;;2.55;;
81952;SDS011;71454;55.476;14.282;2023-11-21T00:39:51;9.82;;;3.00;;
81952;SDS011;71454;55.476;14.282;2023-11-21T00:42:17;6.53;;;2.60;;
81952;SDS011;71454;55.476;14.282;2023-11-21T00:44:42;10.82;;;2.75;;
81952;SDS011;71454;55.476;14.282;2023-11-21T00:47:07;9.50;;;2.78;;
81952;SDS011;71454;55.476;14.282;2023-11-21T00:49:33;8.18;;;3.92;;
81952;SDS011;71454;55.476;14.282;2023-11-21T00:51:58;9.07;;;3.53;;
81952;SDS011;71454;55.476;14.282;2023-11-21T00:54:24;8.60;;;3.67;;
81952;SDS011;71454;55.476;14.282;2023-11-21T00:56:49;10.50;;;4.38;;
81952;SDS011;71454;55.476;14.282;2023-11-21T00:59:15;8.65;;;3.63;;
81952;SDS011;71454;55.476;14.282;2023-11-21T01:01:40;10.38;;;3.83;;
81952;SDS011;71454;55.476;14.282;2023-11-21T01:04:05;9.43;;;4.40;;
81952;SDS011;71454;55.476;14.282;2023-11-21T01:06:32;10.65;;;4.57;;
81952;SDS011;71454;55.476;14.282;2023-11-21T01:08:57;8.88;;;3.70;;
81952;SDS011;71454;55.476;14.282;2023-11-21T01:11:23;9.95;;;3.13;;
81952;SDS011;71454;55.476;14.282;2023-11-21T01:13:48;10.18;;;3.05;;
81952;SDS011;71454;55.476;14.282;2023-11-21T01:16:14;6.50;;;2.70;;
81952;SDS011;71454;55.476;14.282;2023-11-21T01:18:39;8.15;;;2.90;;
81952;SDS011;71454;55.476;14.282;2023-11-21T01:21:05;6.50;;;2.38;;
81952;SDS011;71454;55.476;14.282;2023-11-21T01:23:31;6.22;;;2.50;;
81952;SDS011;71454;55.476;14.282;2023-11-21T01:25:56;7.28;;;2.70;;
81952;SDS011;71454;55.476;14.282;2023-11-21T01:28:22;7.97;;;3.05;;
81952;SDS011;71454;55.476;14.282;2023-11-21T01:30:48;6.60;;;2.40;;
81952;SDS011;71454;55.476;14.282;2023-11-21T01:33:13;7.35;;;2.60;;
81952;SDS011;71454;55.476;14.282;2023-11-21T01:35:40;10.68;;;3.00;;
81952;SDS011;71454;55.476;14.282;2023-11-21T01:38:06;8.40;;;2.90;;
81952;SDS011;71454;55.476;14.282;2023-11-21T01:40:33;7.05;;;2.30;;
81952;SDS011;71454;55.476;14.282;2023-11-21T01:42:59;8.07;;;2.50;;
81952;SDS011;71454;55.476;14.282;2023-11-21T01:45:24;8.90;;;2.40;;
81952;SDS011;71454;55.476;14.282;2023-11-21T01:47:50;7.38;;;3.00;;
81952;SDS011;71454;55.476;14.282;2023-11-21T01:50:16;7.57;;;2.92;;
81952;SDS011;71454;55.476;14.282;2023-11-21T01:52:43;5.93;;;2.53;;
81952;SDS011;71454;55.476;14.282;2023-11-21T01:55:09;6.35;;;2.72;;
81952;SDS011;71454;55.476;14.282;2023-11-21T01:57:36;6.60;;;2.78;;
81952;SDS011;71454;55.476;14.282;2023-11-21T02:00:02;7.18;;;2.83;;
81952;SDS011;71454;55.476;14.282;2023-11-21T02:02:43;8.57;;;2.95;;
81952;SDS011;71454;55.476;14.282;2023-11-21T02:05:13;7.90;;;2.90;;
81952;SDS011;71454;55.476;14.282;2023-11-21T02:07:40;8.10;;;2.55;;
81952;SDS011;71454;55.476;14.282;2023-11-21T02:10:08;6.57;;;2.47;;
81952;SDS011;71454;55.476;14.282;2023-11-21T02:12:34;7.28;;;2.40;;
81952;SDS011;71454;55.476;14.282;2023-11-21T02:15:00;7.60;;;2.47;;
81952;SDS011;71454;55.476;14.282;2023-11-21T02:17:28;6.60;;;2.70;;
81952;SDS011;71454;55.476;14.282;2023-11-21T02:19:59;8.60;;;2.85;;
81952;SDS011;71454;55.476;14.282;2023-11-21T02:22:25;9.57;;;3.10;;
81952;SDS011;71454;55.476;14.282;2023-11-21T02:24:57;8.05;;;3.00;;
81952;SDS011;71454;55.476;14.282;2023-11-21T02:27:23;8.60;;;2.80;;
81952;SDS011;71454;55.476;14.282;2023-11-21T02:29:49;7.47;;;2.88;;
81952;SDS011;71454;55.476;14.282;2023-11-21T02:32:14;10.85;;;3.03;;
81952;SDS011;71454;55.476;14.282;2023-11-21T02:34:42;8.85;;;2.63;;
81952;SDS011;71454;55.476;14.282;2023-11-21T02:37:08;10.93;;;3.13;;
81952;SDS011;71454;55.476;14.282;2023-11-21T02:39:34;8.43;;;2.42;;
81952;SDS011;71454;55.476;14.282;2023-11-21T02:41:59;9.38;;;3.20;;
81952;SDS011;71454;55.476;14.282;2023-11-21T02:44:24;6.90;;;2.50;;
81952;SDS011;71454;55.476;14.282;2023-11-21T02:46:51;7.03;;;2.28;;
81952;SDS011;71454;55.476;14.282;2023-11-21T02:49:16;8.93;;;2.42;;
81952;SDS011;71454;55.476;14.282;2023-11-21T02:51:42;8.02;;;3.08;;
81952;SDS011;71454;55.476;14.282;2023-11-21T02:54:07;8.85;;;2.75;;
81952;SDS011;71454;55.476;14.282;2023-11-21T02:56:33;7.65;;;2.08;;
81952;SDS011;71454;55.476;14.282;2023-11-21T02:58:59;7.85;;;2.58;;
81952;SDS011;71454;55.476;14.282;2023-11-21T03:01:25;5.93;;;2.10;;
81952;SDS011;71454;55.476;14.282;2023-11-21T03:03:51;8.20;;;2.67;;
81952;SDS011;71454;55.476;14.282;2023-11-21T03:06:19;9.02;;;2.78;;
81952;SDS011;71454;55.476;14.282;2023-11-21T03:08:45;9.45;;;3.05;;
81952;SDS011;71454;55.476;14.282;2023-11-21T03:11:11;7.13;;;2.70;;
81952;SDS011;71454;55.476;14.282;2023-11-21T03:13:38;7.70;;;2.65;;
81952;SDS011;71454;55.476;14.282;2023-11-21T03:16:06;10.82;;;2.83;;
81952;SDS011;71454;55.476;14.282;2023-11-21T03:18:35;7.88;;;2.78;;
81952;SDS011;71454;55.476;14.282;2023-11-21T03:21:07;5.35;;;2.10;;
81952;SDS011;71454;55.476;14.282;2023-11-21T03:23:34;6.55;;;2.35;;
81952;SDS011;71454;55.476;14.282;2023-11-21T03:26:00;7.20;;;2.47;;
81952;SDS011;71454;55.476;14.282;2023-11-21T03:28:26;7.95;;;2.60;;
81952;SDS011;71454;55.476;14.282;2023-11-21T03:30:52;8.13;;;3.30;;
81952;SDS011;71454;55.476;14.282;2023-11-21T03:33:18;9.93;;;2.78;;
81952;SDS011;71454;55.476;14.282;2023-11-21T03:35:43;7.63;;;2.55;;
81952;SDS011;71454;55.476;14.282;2023-11-21T03:38:10;5.82;;;2.15;;
81952;SDS011;71454;55.476;14.282;2023-11-21T03:40:35;8.93;;;2.53;;
81952;SDS011;71454;55.476;14.282;2023-11-21T03:43:01;9.48;;;2.70;;
81952;SDS011;71454;55.476;14.282;2023-11-21T03:45:26;6.20;;;2.05;;
81952;SDS011;71454;55.476;14.282;2023-11-21T03:47:52;6.13;;;2.28;;
81952;SDS011;71454;55.476;14.282;2023-11-21T03:50:17;7.43;;;1.95;;
81952;SDS011;71454;55.476;14.282;2023-11-21T03:52:43;7.13;;;2.05;;
81952;SDS011;71454;55.476;14.282;2023-11-21T03:55:08;7.40;;;2.53;;
81952;SDS011;71454;55.476;14.282;2023-11-21T03:57:34;6.45;;;2.35;;
81952;SDS011;71454;55.476;14.282;2023-11-21T03:59:59;7.85;;;2.50;;
81952;SDS011;71454;55.476;14.282;2023-11-21T04:02:24;7.68;;;2.72;;
81952;SDS011;71454;55.476;14.282;2023-11-21T04:04:51;6.28;;;2.08;;
81952;SDS011;71454;55.476;14.282;2023-11-21T04:07:16;7.05;;;1.95;;
81952;SDS011;71454;55.476;14.282;2023-11-21T04:09:42;8.82;;;1.92;;
81952;SDS011;71454;55.476;14.282;2023-11-21T04:12:08;6.45;;;2.70;;
81952;SDS011;71454;55.476;14.282;2023-11-21T04:14:34;6.45;;;2.22;;
81952;SDS011;71454;55.476;14.282;2023-11-21T04:17:00;7.82;;;1.92;;
81952;SDS011;71454;55.476;14.282;2023-11-21T04:19:25;5.50;;;1.75;;
81952;SDS011;71454;55.476;14.282;2023-11-21T04:21:51;7.32;;;1.95;;
81952;SDS011;71454;55.476;14.282;2023-11-21T04:24:16;7.78;;;2.17;;
81952;SDS011;71454;55.476;14.282;2023-11-21T04:26:43;7.03;;;2.05;;
81952;SDS011;71454;55.476;14.282;2023-11-21T04:29:08;6.78;;;1.92;;
81952;SDS011;71454;55.476;14.282;2023-11-21T04:31:34;4.95;;;1.75;;
81952;SDS011;71454;55.476;14.282;2023-11-21T04:33:59;5.40;;;1.90;;
81952;SDS011;71454;55.476;14.282;2023-11-21T04:36:25;6.47;;;1.80;;
81952;SDS011;71454;55.476;14.282;2023-11-21T04:38:50;4.90;;;1.70;;
81952;SDS011;71454;55.476;14.282;2023-11-21T04:41:15;6.75;;;1.80;;
81952;SDS011;71454;55.476;14.282;2023-11-21T04:43:41;6.10;;;1.70;;
81952;SDS011;71454;55.476;14.282;2023-11-21T04:46:07;5.57;;;1.35;;
81952;SDS011;71454;55.476;14.282;2023-11-21T04:48:32;6.22;;;2.10;;
81952;SDS011;71454;55.476;14.282;2023-11-21T04:50:58;5.53;;;1.95;;
81952;SDS011;71454;55.476;14.282;2023-11-21T04:53:23;5.32;;;1.80;;
81952;SDS011;71454;55.476;14.282;2023-11-21T04:55:49;6.88;;;2.05;;
81952;SDS011;71454;55.476;14.282;2023-11-21T04:58:14;6.75;;;2.15;;
81952;SDS011;71454;55.476;14.282;2023-11-21T05:00:41;6.22;;;1.60;;
81952;SDS011;71454;55.476;14.282;2023-11-21T05:03:06;7.25;;;2.08;;
81952;SDS011;71454;55.476;14.282;2023-11-21T05:05:32;8.00;;;2.45;;
81952;SDS011;71454;55.476;14.282;2023-11-21T05:07:59;6.20;;;1.70;;
81952;SDS011;71454;55.476;14.282;2023-11-21T05:10:24;5.32;;;1.70;;
81952;SDS011;71454;55.476;14.282;2023-11-21T05:12:50;5.80;;;1.98;;
81952;SDS011;71454;55.476;14.282;2023-11-21T05:15:15;7.90;;;1.98;;
81952;SDS011;71454;55.476;14.282;2023-11-21T05:17:42;5.65;;;1.90;;
81952;SDS011;71454;55.476;14.282;2023-11-21T05:20:12;7.03;;;1.58;;
81952;SDS011;71454;55.476;14.282;2023-11-21T05:22:42;5.75;;;1.80;;
81952;SDS011;71454;55.476;14.282;2023-11-21T05:25:07;6.72;;;1.60;;
81952;SDS011;71454;55.476;14.282;2023-11-21T05:27:34;7.50;;;2.00;;
81952;SDS011;71454;55.476;14.282;2023-11-21T05:30:01;8.18;;;2.15;;
81952;SDS011;71454;55.476;14.282;2023-11-21T05:32:27;6.40;;;1.60;;
81952;SDS011;71454;55.476;14.282;2023-11-21T05:34:53;7.43;;;1.88;;
81952;SDS011;71454;55.476;14.282;2023-11-21T05:37:18;7.93;;;1.83;;
81952;SDS011;71454;55.476;14.282;2023-11-21T05:39:44;9.48;;;2.05;;
81952;SDS011;71454;55.476;14.282;2023-11-21T05:42:09;3.80;;;1.30;;
81952;SDS011;71454;55.476;14.282;2023-11-21T05:44:36;7.50;;;1.77;;
81952;SDS011;71454;55.476;14.282;2023-11-21T05:47:06;6.40;;;2.03;;
81952;SDS011;71454;55.476;14.282;2023-11-21T05:49:32;8.68;;;2.08;;
81952;SDS011;71454;55.476;14.282;2023-11-21T05:51:58;4.57;;;1.45;;
81952;SDS011;71454;55.476;14.282;2023-11-21T05:54:23;6.90;;;2.17;;
81952;SDS011;71454;55.476;14.282;2023-11-21T05:56:49;7.03;;;1.75;;
81952;SDS011;71454;55.476;14.282;2023-11-21T05:59:14;6.05;;;1.70;;
81952;SDS011;71454;55.476;14.282;2023-11-21T06:01:40;4.30;;;1.30;;
81952;SDS011;71454;55.476;14.282;2023-11-21T06:04:05;5.22;;;1.40;;
81952;SDS011;71454;55.476;14.282;2023-11-21T06:06:33;7.57;;;1.75;;
81952;SDS011;71454;55.476;14.282;2023-11-21T06:08:58;7.10;;;1.75;;
81952;SDS011;71454;55.476;14.282;2023-11-21T06:11:24;8.75;;;1.85;;
81952;SDS011;71454;55.476;14.282;2023-11-21T06:13:49;4.32;;;1.30;;
81952;SDS011;71454;55.476;14.282;2023-11-21T06:16:15;4.50;;;1.65;;
81952;SDS011;71454;55.476;14.282;2023-11-21T06:18:42;7.10;;;1.52;;
81952;SDS011;71454;55.476;14.282;2023-11-21T06:21:11;4.53;;;1.30;;
81952;SDS011;71454;55.476;14.282;2023-11-21T06:23:37;8.55;;;1.77;;
81952;SDS011;71454;55.476;14.282;2023-11-21T06:26:02;7.47;;;2.00;;
81952;SDS011;71454;55.476;14.282;2023-11-21T06:28:29;4.47;;;1.48;;
81952;SDS011;71454;55.476;14.282;2023-11-21T06:30:55;5.47;;;1.30;;
81952;SDS011;71454;55.476;14.282;2023-11-21T06:33:21;5.80;;;1.77;;
81952;SDS011;71454;55.476;14.282;2023-11-21T06:35:46;7.20;;;1.60;;
81952;SDS011;71454;55.476;14.282;2023-11-21T06:38:12;5.53;;;1.30;;
81952;SDS011;71454;55.476;14.282;2023-11-21T06:40:37;7.00;;;2.30;;
81952;SDS011;71454;55.476;14.282;2023-11-21T06:43:03;11.02;;;1.83;;
81952;SDS011;71454;55.476;14.282;2023-11-21T06:45:30;3.83;;;1.02;;
81952;SDS011;71454;55.476;14.282;2023-11-21T06:47:55;6.00;;;1.40;;
81952;SDS011;71454;55.476;14.282;2023-11-21T06:50:20;3.95;;;1.30;;
81952;SDS011;71454;55.476;14.282;2023-11-21T06:52:46;5.80;;;1.40;;
81952;SDS011;71454;55.476;14.282;2023-11-21T06:55:12;5.40;;;1.45;;
81952;SDS011;71454;55.476;14.282;2023-11-21T06:57:38;6.43;;;1.80;;
81952;SDS011;71454;55.476;14.282;2023-11-21T07:00:03;4.35;;;1.38;;
81952;SDS011;71454;55.476;14.282;2023-11-21T07:02:33;5.28;;;1.30;;
81952;SDS011;71454;55.476;14.282;2023-11-21T07:04:59;3.83;;;1.23;;
81952;SDS011;71454;55.476;14.282;2023-11-21T07:07:25;4.13;;;1.17;;
81952;SDS011;71454;55.476;14.282;2023-11-21T07:09:50;5.15;;;1.48;;
81952;SDS011;71454;55.476;14.282;2023-11-21T07:12:17;4.68;;;1.40;;
81952;SDS011;71454;55.476;14.282;2023-11-21T07:14:42;4.40;;;1.30;;
81952;SDS011;71454;55.476;14.282;2023-11-21T07:17:10;4.50;;;1.27;;
81952;SDS011;71454;55.476;14.282;2023-11-21T07:19:37;3.38;;;1.15;;
81952;SDS011;71454;55.476;14.282;2023-11-21T07:22:03;3.45;;;1.08;;
81952;SDS011;71454;55.476;14.282;2023-11-21T07:24:28;4.05;;;1.10;;
81952;SDS011;71454;55.476;14.282;2023-11-21T07:26:53;2.90;;;0.90;;
81952;SDS011;71454;55.476;14.282;2023-11-21T07:29:21;5.05;;;1.23;;
81952;SDS011;71454;55.476;14.282;2023-11-21T07:31:48;3.95;;;1.10;;
81952;SDS011;71454;55.476;14.282;2023-11-21T07:34:13;5.75;;;1.08;;
81952;SDS011;71454;55.476;14.282;2023-11-21T07:36:38;4.10;;;1.30;;
81952;SDS011;71454;55.476;14.282;2023-11-21T07:39:04;4.95;;;1.35;;
81952;SDS011;71454;55.476;14.282;2023-11-21T07:41:31;5.63;;;1.20;;
81952;SDS011;71454;55.476;14.282;2023-11-21T07:43:57;5.28;;;1.40;;
81952;SDS011;71454;55.476;14.282;2023-11-21T07:46:22;6.80;;;1.33;;
81952;SDS011;71454;55.476;14.282;2023-11-21T07:48:49;7.82;;;2.10;;
81952;SDS011;71454;55.476;14.282;2023-11-21T07:51:14;6.25;;;1.40;;
81952;SDS011;71454;55.476;14.282;2023-11-21T07:53:40;4.57;;;1.30;;
81952;SDS011;71454;55.476;14.282;2023-11-21T07:56:06;7.78;;;1.30;;
81952;SDS011;71454;55.476;14.282;2023-11-21T07:58:33;4.35;;;1.40;;
81952;SDS011;71454;55.476;14.282;2023-11-21T08:00:58;3.90;;;1.17;;
81952;SDS011;71454;55.476;14.282;2023-11-21T08:03:24;5.45;;;1.73;;
81952;SDS011;71454;55.476;14.282;2023-11-21T08:05:51;4.80;;;1.50;;
81952;SDS011;71454;55.476;14.282;2023-11-21T08:08:17;5.25;;;1.83;;
81952;SDS011;71454;55.476;14.282;2023-11-21T08:10:43;5.57;;;1.50;;
81952;SDS011;71454;55.476;14.282;2023-11-21T08:13:19;6.95;;;1.58;;
81952;SDS011;71454;55.476;14.282;2023-11-21T08:15:44;6.18;;;1.67;;
81952;SDS011;71454;55.476;14.282;2023-11-21T08:18:11;6.18;;;2.13;;
81952;SDS011;71454;55.476;14.282;2023-11-21T08:20:37;6.13;;;1.70;;
81952;SDS011;71454;55.476;14.282;2023-11-21T08:23:04;5.88;;;1.90;;
81952;SDS011;71454;55.476;14.282;2023-11-21T08:25:31;4.35;;;1.48;;
81952;SDS011;71454;55.476;14.282;2023-11-21T08:27:56;5.57;;;1.52;;
81952;SDS011;71454;55.476;14.282;2023-11-21T08:30:22;5.03;;;1.45;;
81952;SDS011;71454;55.476;14.282;2023-11-21T08:32:49;4.63;;;1.10;;
81952;SDS011;71454;55.476;14.282;2023-11-21T08:35:16;4.47;;;1.35;;
81952;SDS011;71454;55.476;14.282;2023-11-21T08:37:41;3.67;;;1.20;;
81952;SDS011;71454;55.476;14.282;2023-11-21T08:40:07;4.38;;;1.20;;
81952;SDS011;71454;55.476;14.282;2023-11-21T08:42:37;5.72;;;1.05;;
81952;SDS011;71454;55.476;14.282;2023-11-21T08:45:03;6.68;;;1.50;;
81952;SDS011;71454;55.476;14.282;2023-11-21T08:47:29;4.55;;;1.30;;
81952;SDS011;71454;55.476;14.282;2023-11-21T08:49:55;3.22;;;0.88;;
81952;SDS011;71454;55.476;14.282;2023-11-21T08:52:20;4.80;;;1.30;;
81952;SDS011;71454;55.476;14.282;2023-11-21T08:54:48;5.75;;;1.65;;
81952;SDS011;71454;55.476;14.282;2023-11-21T08:57:13;4.68;;;1.40;;
81952;SDS011;71454;55.476;14.282;2023-11-21T08:59:39;7.40;;;1.17;;
81952;SDS011;71454;55.476;14.282;2023-11-21T09:02:04;5.45;;;1.52;;
81952;SDS011;71454;55.476;14.282;2023-11-21T09:04:30;2.97;;;0.90;;
81952;SDS011;71454;55.476;14.282;2023-11-21T09:06:55;2.33;;;0.90;;
81952;SDS011;71454;55.476;14.282;2023-11-21T09:09:20;4.47;;;1.55;;
81952;SDS011;71454;55.476;14.282;2023-11-21T09:11:46;5.40;;;1.10;;
81952;SDS011;71454;55.476;14.282;2023-11-21T09:14:14;4.63;;;1.20;;
81952;SDS011;71454;55.476;14.282;2023-11-21T09:16:41;4.68;;;1.20;;
81952;SDS011;71454;55.476;14.282;2023-11-21T09:19:06;4.18;;;1.27;;
81952;SDS011;71454;55.476;14.282;2023-11-21T09:21:31;4.15;;;0.90;;
81952;SDS011;71454;55.476;14.282;2023-11-21T09:23:58;4.90;;;1.27;;
81952;SDS011;71454;55.476;14.282;2023-11-21T09:26:23;6.55;;;1.73;;
81952;SDS011;71454;55.476;14.282;2023-11-21T09:28:48;6.93;;;1.48;;
81952;SDS011;71454;55.476;14.282;2023-11-21T09:31:14;4.50;;;1.10;;
81952;SDS011;71454;55.476;14.282;2023-11-21T09:33:41;6.80;;;1.40;;
81952;SDS011;71454;55.476;14.282;2023-11-21T09:36:12;5.43;;;1.27;;
81952;SDS011;71454;55.476;14.282;2023-11-21T09:38:38;4.75;;;1.23;;
81952;SDS011;71454;55.476;14.282;2023-11-21T09:41:04;5.82;;;1.40;;
81952;SDS011;71454;55.476;14.282;2023-11-21T09:43:32;5.13;;;1.33;;
81952;SDS011;71454;55.476;14.282;2023-11-21T09:45:59;5.80;;;1.52;;
81952;SDS011;71454;55.476;14.282;2023-11-21T09:48:26;4.00;;;1.33;;
81952;SDS011;71454;55.476;14.282;2023-11-21T09:50:51;5.20;;;1.40;;
81952;SDS011;71454;55.476;14.282;2023-11-21T09:53:22;4.70;;;1.02;;
81952;SDS011;71454;55.476;14.282;2023-11-21T09:55:50;2.85;;;0.93;;
81952;SDS011;71454;55.476;14.282;2023-11-21T09:58:17;4.70;;;0.80;;
81952;SDS011;71454;55.476;14.282;2023-11-21T10:00:44;4.15;;;1.17;;
81952;SDS011;71454;55.476;14.282;2023-11-21T10:03:11;4.28;;;1.23;;
81952;SDS011;71454;55.476;14.282;2023-11-21T10:05:38;3.80;;;1.27;;
81952;SDS011;71454;55.476;14.282;2023-11-21T10:08:04;3.72;;;0.93;;
81952;SDS011;71454;55.476;14.282;2023-11-21T10:10:33;6.43;;;1.45;;
81952;SDS011;71454;55.476;14.282;2023-11-21T10:13:01;6.50;;;1.60;;
81952;SDS011;71454;55.476;14.282;2023-11-21T10:15:31;5.47;;;0.93;;
81952;SDS011;71454;55.476;14.282;2023-11-21T10:17:59;7.43;;;1.58;;
81952;SDS011;71454;55.476;14.282;2023-11-21T10:20:28;6.68;;;1.42;;
81952;SDS011;71454;55.476;14.282;2023-11-21T10:22:54;7.07;;;1.48;;
81952;SDS011;71454;55.476;14.282;2023-11-21T10:25:21;6.00;;;1.10;;
81952;SDS011;71454;55.476;14.282;2023-11-21T10:27:47;4.93;;;1.30;;
81952;SDS011;71454;55.476;14.282;2023-11-21T10:30:15;6.65;;;1.40;;
81952;SDS011;71454;55.476;14.282;2023-11-21T10:32:44;3.78;;;1.20;;
81952;SDS011;71454;55.476;14.282;2023-11-21T10:35:10;7.53;;;1.30;;
81952;SDS011;71454;55.476;14.282;2023-11-21T10:37:39;6.55;;;1.10;;
81952;SDS011;71454;55.476;14.282;2023-11-21T10:40:08;4.88;;;1.17;;
81952;SDS011;71454;55.476;14.282;2023-11-21T10:42:38;3.70;;;1.13;;
81952;SDS011;71454;55.476;14.282;2023-11-21T10:45:07;4.45;;;1.10;;
81952;SDS011;71454;55.476;14.282;2023-11-21T10:47:40;7.03;;;1.50;;
81952;SDS011;71454;55.476;14.282;2023-11-21T10:50:07;4.32;;;1.00;;
81952;SDS011;71454;55.476;14.282;2023-11-21T10:52:36;5.90;;;1.30;;
81952;SDS011;71454;55.476;14.282;2023-11-21T10:55:20;5.00;;;1.33;;
81952;SDS011;71454;55.476;14.282;2023-11-21T10:57:52;6.00;;;1.50;;
81952;SDS011;71454;55.476;14.282;2023-11-21T11:00:18;4.28;;;1.00;;
81952;SDS011;71454;55.476;14.282;2023-11-21T11:02:50;4.28;;;1.17;;
81952;SDS011;71454;55.476;14.282;2023-11-21T11:05:17;4.00;;;1.15;;
81952;SDS011;71454;55.476;14.282;2023-11-21T11:07:44;5.05;;;1.23;;
81952;SDS011;71454;55.476;14.282;2023-11-21T11:10:20;5.63;;;1.40;;
81952;SDS011;71454;55.476;14.282;2023-11-21T11:12:47;4.60;;;1.40;;
81952;SDS011;71454;55.476;14.282;2023-11-21T11:15:14;4.40;;;1.25;;
81952;SDS011;71454;55.476;14.282;2023-11-21T11:17:41;3.53;;;1.63;;
81952;SDS011;71454;55.476;14.282;2023-11-21T11:20:07;5.40;;;1.50;;
81952;SDS011;71454;55.476;14.282;2023-11-21T11:22:57;5.72;;;1.40;;
81952;SDS011;71454;55.476;14.282;2023-11-21T11:25:35;6.25;;;1.00;;
81952;SDS011;71454;55.476;14.282;2023-11-21T11:28:11;3.42;;;0.90;;
81952;SDS011;71454;55.476;14.282;2023-11-21T11:30:50;4.45;;;1.17;;
81952;SDS011;71454;55.476;14.282;2023-11-21T11:33:44;5.53;;;1.45;;
81952;SDS011;71454;55.476;14.282;2023-11-21T11:38:53;4.47;;;1.20;;
81952;SDS011;71454;55.476;14.282;2023-11-21T11:41:27;5.47;;;1.20;;
81952;SDS011;71454;55.476;14.282;2023-11-21T11:43:57;4.10;;;1.13;;
81952;SDS011;71454;55.476;14.282;2023-11-21T11:49:07;4.72;;;1.27;;
81952;SDS011;71454;55.476;14.282;2023-11-21T11:51:33;4.97;;;1.30;;
81952;SDS011;71454;55.476;14.282;2023-11-21T11:54:00;5.35;;;1.40;;
81952;SDS011;71454;55.476;14.282;2023-11-21T11:56:33;7.70;;;1.40;;
81952;SDS011;71454;55.476;14.282;2023-11-21T11:59:04;7.55;;;1.70;;
81952;SDS011;71454;55.476;14.282;2023-11-21T12:01:32;5.10;;;1.77;;
81952;SDS011;71454;55.476;14.282;2023-11-21T12:06:36;5.30;;;2.05;;
81952;SDS011;71454;55.476;14.282;2023-11-21T12:09:02;6.93;;;1.50;;
81952;SDS011;71454;55.476;14.282;2023-11-21T12:11:31;5.00;;;1.40;;
81952;SDS011;71454;55.476;14.282;2023-11-21T12:13:57;5.15;;;1.40;;
81952;SDS011;71454;55.476;14.282;2023-11-21T12:16:24;5.80;;;1.40;;
81952;SDS011;71454;55.476;14.282;2023-11-21T12:18:52;5.10;;;1.75;;
81952;SDS011;71454;55.476;14.282;2023-11-21T12:21:19;6.10;;;1.63;;
81952;SDS011;71454;55.476;14.282;2023-11-21T12:23:45;7.60;;;1.52;;
81952;SDS011;71454;55.476;14.282;2023-11-21T12:26:12;6.55;;;1.70;;
81952;SDS011;71454;55.476;14.282;2023-11-21T12:28:38;4.20;;;1.20;;
81952;SDS011;71454;55.476;14.282;2023-11-21T12:31:04;3.83;;;1.40;;
81952;SDS011;71454;55.476;14.282;2023-11-21T12:33:32;6.43;;;1.80;;
81952;SDS011;71454;55.476;14.282;2023-11-21T12:35:58;3.95;;;1.27;;
81952;SDS011;71454;55.476;14.282;2023-11-21T12:38:23;4.68;;;1.75;;
81952;SDS011;71454;55.476;14.282;2023-11-21T12:40:49;6.07;;;2.03;;
81952;SDS011;71454;55.476;14.282;2023-11-21T12:43:16;6.10;;;1.73;;
81952;SDS011;71454;55.476;14.282;2023-11-21T12:45:43;5.00;;;1.60;;
81952;SDS011;71454;55.476;14.282;2023-11-21T12:48:08;8.05;;;1.63;;
81952;SDS011;71454;55.476;14.282;2023-11-21T12:50:36;9.27;;;1.80;;
81952;SDS011;71454;55.476;14.282;2023-11-21T12:53:03;6.82;;;1.65;;
81952;SDS011;71454;55.476;14.282;2023-11-21T12:55:30;4.82;;;1.30;;
81952;SDS011;71454;55.476;14.282;2023-11-21T12:57:57;5.18;;;1.20;;
81952;SDS011;71454;55.476;14.282;2023-11-21T13:00:33;3.47;;;0.90;;
81952;SDS011;71454;55.476;14.282;2023-11-21T13:03:07;5.88;;;1.48;;
81952;SDS011;71454;55.476;14.282;2023-11-21T13:05:34;4.38;;;1.13;;
81952;SDS011;71454;55.476;14.282;2023-11-21T13:08:03;4.15;;;1.25;;
81952;SDS011;71454;55.476;14.282;2023-11-21T13:10:32;3.47;;;1.10;;
81952;SDS011;71454;55.476;14.282;2023-11-21T13:13:01;3.58;;;1.10;;
81952;SDS011;71454;55.476;14.282;2023-11-21T13:15:31;3.65;;;1.30;;
81952;SDS011;71454;55.476;14.282;2023-11-21T13:17:58;3.55;;;1.30;;
81952;SDS011;71454;55.476;14.282;2023-11-21T13:20:26;5.13;;;1.55;;
81952;SDS011;71454;55.476;14.282;2023-11-21T13:22:53;2.88;;;1.23;;
81952;SDS011;71454;55.476;14.282;2023-11-21T13:25:20;3.15;;;1.20;;
81952;SDS011;71454;55.476;14.282;2023-11-21T13:27:46;4.47;;;1.58;;
81952;SDS011;71454;55.476;14.282;2023-11-21T13:30:13;3.67;;;1.10;;
81952;SDS011;71454;55.476;14.282;2023-11-21T13:32:43;3.83;;;1.17;;
81952;SDS011;71454;55.476;14.282;2023-11-21T13:35:09;5.50;;;1.55;;
81952;SDS011;71454;55.476;14.282;2023-11-21T13:37:46;5.60;;;1.55;;
81952;SDS011;71454;55.476;14.282;2023-11-21T13:40:14;3.47;;;1.30;;
81952;SDS011;71454;55.476;14.282;2023-11-21T13:45:10;3.83;;;1.23;;
81952;SDS011;71454;55.476;14.282;2023-11-21T13:47:37;6.43;;;2.05;;
81952;SDS011;71454;55.476;14.282;2023-11-21T13:50:03;5.82;;;2.08;;
81952;SDS011;71454;55.476;14.282;2023-11-21T13:52:33;6.07;;;2.13;;
81952;SDS011;71454;55.476;14.282;2023-11-21T13:55:00;9.15;;;2.17;;
81952;SDS011;71454;55.476;14.282;2023-11-21T13:57:31;4.72;;;1.10;;
81952;SDS011;71454;55.476;14.282;2023-11-21T13:59:57;3.38;;;0.95;;
81952;SDS011;71454;55.476;14.282;2023-11-21T14:02:24;2.83;;;0.80;;
81952;SDS011;71454;55.476;14.282;2023-11-21T14:04:57;2.70;;;0.70;;
81952;SDS011;71454;55.476;14.282;2023-11-21T14:07:25;2.55;;;0.60;;
81952;SDS011;71454;55.476;14.282;2023-11-21T14:10:01;2.35;;;0.70;;
81952;SDS011;71454;55.476;14.282;2023-11-21T14:12:27;3.20;;;0.98;;
81952;SDS011;71454;55.476;14.282;2023-11-21T14:14:53;3.92;;;1.00;;
81952;SDS011;71454;55.476;14.282;2023-11-21T14:17:20;1.65;;;0.60;;
81952;SDS011;71454;55.476;14.282;2023-11-21T14:19:47;1.70;;;0.70;;
81952;SDS011;71454;55.476;14.282;2023-11-21T14:22:14;2.85;;;0.80;;
81952;SDS011;71454;55.476;14.282;2023-11-21T14:24:39;3.65;;;1.27;;
81952;SDS011;71454;55.476;14.282;2023-11-21T14:27:12;2.92;;;0.68;;
81952;SDS011;71454;55.476;14.282;2023-11-21T14:29:37;3.92;;;0.93;;
81952;SDS011;71454;55.476;14.282;2023-11-21T14:32:06;6.30;;;1.10;;
81952;SDS011;71454;55.476;14.282;2023-11-21T14:34:32;3.63;;;1.10;;
81952;SDS011;71454;55.476;14.282;2023-11-21T14:36:58;4.00;;;1.20;;
81952;SDS011;71454;55.476;14.282;2023-11-21T14:39:23;6.05;;;1.60;;
81952;SDS011;71454;55.476;14.282;2023-11-21T14:41:52;4.13;;;1.08;;